Airport View

Enter AWOS ICAO identifier for current METAR.

ex. KFNL

KM25 191235Z AUTO 06006KT 10SM CLR M01/M04 A3053 RMK AO2

19 Feb 2019 12:32

Frequency: 120.625

Phone: 270-247-2094

Other Area AWOS: KCEY - KPAH - KM30 - KPHT

TAF KPAH 191120Z 1912/2012 06008KT P6SM SCT100 BKN250 FM191600 07011G17KT P6SM SCT040 BKN100 FM192200 07013G21KT P6SM VCSH SCT020 OVC040 FM200000 06014G23KT 3SM -RA BR SCT005 OVC020 FM200200 07013G22KT 2SM RA BR OVC005 FM201100 09010G15KT 3SM -RA BR OVC004